地図

経路データ

SID SEASON NUMBER BASIN SUBBASIN NAME ISO_TIME NATURE LAT LON WMO_WIND WMO_PRES WMO_AGENCY TRACK_TYPE DIST2LAND LANDFALL IFLAG USA_AGENCY USA_ATCF_ID USA_LAT USA_LON USA_RECORD USA_STATUS USA_WIND USA_PRES USA_SSHS USA_R34_NE USA_R34_SE USA_R34_SW USA_R34_NW USA_R50_NE USA_R50_SE USA_R50_SW USA_R50_NW USA_R64_NE USA_R64_SE USA_R64_SW USA_R64_NW USA_POCI USA_ROCI USA_RMW USA_EYE TOKYO_LAT TOKYO_LON TOKYO_GRADE TOKYO_WIND TOKYO_PRES TOKYO_R50_DIR TOKYO_R50_LONG TOKYO_R50_SHORT TOKYO_R30_DIR TOKYO_R30_LONG TOKYO_R30_SHORT TOKYO_LAND CMA_LAT CMA_LON CMA_CAT CMA_WIND CMA_PRES HKO_LAT HKO_LON HKO_CAT HKO_WIND HKO_PRES NEWDELHI_LAT NEWDELHI_LON NEWDELHI_GRADE NEWDELHI_WIND NEWDELHI_PRES NEWDELHI_CI NEWDELHI_DP NEWDELHI_POCI REUNION_LAT REUNION_LON REUNION_TYPE REUNION_WIND REUNION_PRES REUNION_TNUM REUNION_CI REUNION_RMW REUNION_R34_NE REUNION_R34_SE REUNION_R34_SW REUNION_R34_NW REUNION_R50_NE REUNION_R50_SE REUNION_R50_SW REUNION_R50_NW REUNION_R64_NE REUNION_R64_SE REUNION_R64_SW REUNION_R64_NW BOM_LAT BOM_LON BOM_TYPE BOM_WIND BOM_PRES BOM_TNUM BOM_CI BOM_RMW BOM_R34_NE BOM_R34_SE BOM_R34_SW BOM_R34_NW BOM_R50_NE BOM_R50_SE BOM_R50_SW BOM_R50_NW BOM_R64_NE BOM_R64_SE BOM_R64_SW BOM_R64_NW BOM_ROCI BOM_POCI BOM_EYE BOM_POS_METHOD BOM_PRES_METHOD NADI_LAT NADI_LON NADI_CAT NADI_WIND NADI_PRES WELLINGTON_LAT WELLINGTON_LON WELLINGTON_WIND WELLINGTON_PRES DS824_LAT DS824_LON DS824_STAGE DS824_WIND DS824_PRES TD9636_LAT TD9636_LON TD9636_STAGE TD9636_WIND TD9636_PRES TD9635_LAT TD9635_LON TD9635_WIND TD9635_PRES TD9635_ROCI NEUMANN_LAT NEUMANN_LON NEUMANN_CLASS NEUMANN_WIND NEUMANN_PRES MLC_LAT MLC_LON MLC_CLASS MLC_WIND MLC_PRES USA_GUST BOM_GUST BOM_GUST_PER REUNION_GUST REUNION_GUST_PER USA_SEAHGT USA_SEARAD_NE USA_SEARAD_SE USA_SEARAD_SW USA_SEARAD_NW STORM_SPEED STORM_DIR
1943315N11141 1943 81 WP MM NOT_NAMED 1943-11-10 12:00:00 NR 10.5000 140.800 main 1377 1373 __________O___ -1 10.5000 140.800 2 3 251
1943315N11141 1943 81 WP MM NOT_NAMED 1943-11-10 15:00:00 NR 10.4545 140.669 main 1373 1354 __________P___ -1 10.4545 140.669 2 3 251
1943315N11141 1943 81 WP MM NOT_NAMED 1943-11-10 18:00:00 NR 10.3973 140.500 main 1354 1335 __________P___ -1 10.3973 140.500 2 4 251
1943315N11141 1943 81 WP MM NOT_NAMED 1943-11-10 21:00:00 NR 10.3164 140.257 main 1335 1309 __________P___ -1 10.3164 140.257 2 6 252
1943315N11141 1943 81 WP MM NOT_NAMED 1943-11-11 00:00:00 NR 10.2000 139.900 main 1309 1281 __________O___ -1 10.2000 139.900 2 9 252
1943315N11141 1943 81 WP MM NOT_NAMED 1943-11-11 03:00:00 NR 10.0400 139.404 main 1270 1239 __________P___ -1 10.0400 139.404 2 12 252
1943315N11141 1943 81 WP MM NOT_NAMED 1943-11-11 06:00:00 NR 9.84482 138.787 main 1228 1186 __________P___ -1 9.84482 138.787 2 14 252
1943315N11141 1943 81 WP MM NOT_NAMED 1943-11-11 09:00:00 NR 9.62723 138.076 main 1186 1147 __________P___ -1 9.62723 138.076 2 15 253
1943315N11141 1943 81 WP MM NOT_NAMED 1943-11-11 12:00:00 NR 9.40000 137.300 main 1147 1102 __________O___ -1 9.40000 137.300 2 16 254
1943315N11141 1943 81 WP MM NOT_NAMED 1943-11-11 15:00:00 NR 9.16233 136.479 main 1102 1011 __________P___ -1 9.16233 136.479 2 17 254
1943315N11141 1943 81 WP MM NOT_NAMED 1943-11-11 18:00:00 NR 8.92066 135.607 main 1000 910 __________P___ -1 8.92066 135.607 2 18 255
1943315N11141 1943 81 WP MM NOT_NAMED 1943-11-11 21:00:00 NR 8.69355 134.732 main 899 809 __________P___ -1 8.69355 134.732 2 17 256
1943315N11141 1943 81 WP MM NOT_NAMED 1943-11-12 00:00:00 NR 8.50000 133.900 main 809 730 __________O___ -1 8.50000 133.900 2 16 257
1943315N11141 1943 81 WP MM NOT_NAMED 1943-11-12 03:00:00 NR 8.33477 133.179 main 730 652 __________P___ -1 8.33477 133.179 2 14 258
1943315N11141 1943 81 WP MM NOT_NAMED 1943-11-12 06:00:00 NR 8.20892 132.505 main 652 585 __________P___ -1 8.20892 132.505 2 13 261
1943315N11141 1943 81 WP MM NOT_NAMED 1943-11-12 09:00:00 NR 8.12864 131.854 main 585 509 __________P___ -1 8.12864 131.854 2 13 265
1943315N11141 1943 81 WP MM NOT_NAMED 1943-11-12 12:00:00 NR 8.10000 131.200 main 509 442 __________O___ -1 8.10000 131.200 2 13 266
1943315N11141 1943 81 WP MM NOT_NAMED 1943-11-12 15:00:00 NR 8.04677 130.543 main 431 365 __________P___ -1 8.04677 130.543 2 13 268
1943315N11141 1943 81 WP MM NOT_NAMED 1943-11-12 18:00:00 NR 8.05391 129.873 main 366 290 __________P___ -1 8.05391 129.873 2 14 275
1943315N11141 1943 81 WP MM NOT_NAMED 1943-11-12 21:00:00 NR 8.15912 129.167 main 292 213 __________P___ -1 8.15912 129.167 2 15 283
1943315N11141 1943 81 WP MM NOT_NAMED 1943-11-13 00:00:00 NR 8.40000 128.400 main 213 131 __________O___ -1 8.40000 128.400 2 18 291
1943315N11141 1943 81 WP MM NOT_NAMED 1943-11-13 03:00:00 NR 8.78999 127.492 main 131 43 __________P___ -1 8.78999 127.492 2 21 296
1943315N11141 1943 81 WP MM NOT_NAMED 1943-11-13 06:00:00 NR 9.31398 126.529 main 34 11 __________P___ -1 9.31398 126.529 2 22 301
1943315N11141 1943 81 WP MM NOT_NAMED 1943-11-13 09:00:00 NR 9.93079 125.576 main 22 0 __________P___ -1 9.93079 125.576 2 22 306
1943315N11141 1943 81 WP MM NOT_NAMED 1943-11-13 12:00:00 NR 10.6000 124.700 main 10 0 __________O___ -1 10.6000 124.700 2 22 311
1943315N11141 1943 81 WP MM NOT_NAMED 1943-11-13 15:00:00 NR 11.3291 123.925 main 11 11 __________P___ -1 11.3291 123.925 2 21 316
1943315N11141 1943 81 WP MM NOT_NAMED 1943-11-13 18:00:00 NR 12.0891 123.242 main 10 0 __________P___ -1 12.0891 123.242 2 19 320
1943315N11141 1943 81 WP MM NOT_NAMED 1943-11-13 21:00:00 NR 12.8046 122.663 main 44 15 __________P___ -1 12.8046 122.663 2 17 322
1943315N11141 1943 81 WP MM NOT_NAMED 1943-11-14 00:00:00 NR 13.4000 122.200 main 24 15 __________O___ -1 13.4000 122.200 2 13 320
1943315N11141 1943 81 WP MM NOT_NAMED 1943-11-14 03:00:00 NR 13.7662 121.834 main 22 0 __________P___ -1 13.7662 121.834 2 9 316
1943315N11141 1943 81 WP MM NOT_NAMED 1943-11-14 06:00:00 NR 14.0113 121.583 main 0 0 __________P___ -1 14.0113 121.583 2 6 317
1943315N11141 1943 81 WP MM NOT_NAMED 1943-11-14 09:00:00 NR 14.2009 121.416 main 0 0 __________P___ -1 14.2009 121.416 2 5 325
1943315N11141 1943 81 WP MM NOT_NAMED 1943-11-14 12:00:00 NR 14.4000 121.300 main 0 0 __________O___ -1 14.4000 121.300 2 6 336
1943315N11141 1943 81 WP MM NOT_NAMED 1943-11-14 15:00:00 NR 14.7277 121.170 main 0 0 __________P___ -1 14.7277 121.170 2 7 343
1943315N11141 1943 81 WP MM NOT_NAMED 1943-11-14 18:00:00 NR 15.0724 121.082 main 0 0 __________P___ -1 15.0724 121.082 2 7 348
1943315N11141 1943 81 WP MM NOT_NAMED 1943-11-14 21:00:00 NR 15.4059 121.029 main 0 0 __________P___ -1 15.4059 121.029 2 6 353
1943315N11141 1943 81 WP MM NOT_NAMED 1943-11-15 00:00:00 NR 15.7000 121.000 main 0 0 __________O___ -1 15.7000 121.000 2 5 354
1943315N11141 1943 81 WP MM NOT_NAMED 1943-11-15 03:00:00 NR 15.9262 120.978 main 0 0 __________P___ -1 15.9262 120.978 2 4 0
1943315N11141 1943 81 WP MM NOT_NAMED 1943-11-15 06:00:00 NR 16.1100 120.977 main 0 0 __________P___ -1 16.1100 120.977 2 3 3
1943315N11141 1943 81 WP MM NOT_NAMED 1943-11-15 09:00:00 NR 16.2637 120.988 main 0 0 __________P___ -1 16.2637 120.988 2 3 4
1943315N11141 1943 81 WP MM NOT_NAMED 1943-11-15 12:00:00 NR 16.4000 121.000 main 0 0 __________O___ -1 16.4000 121.000 2 3 0
1943315N11141 1943 81 WP MM NOT_NAMED 1943-11-15 15:00:00 NR 16.5353 120.996 main 0 0 __________P___ -1 16.5353 120.996 2 3 0
1943315N11141 1943 81 WP MM NOT_NAMED 1943-11-15 18:00:00 NR 16.6575 120.993 main 0 0 __________P___ -1 16.6575 120.993 2 2 359
1943315N11141 1943 81 WP MM NOT_NAMED 1943-11-15 21:00:00 NR 16.7759 120.993 main 0 0 __________P___ -1 16.7759 120.993 2 2 6
1943315N11141 1943 81 WP MM NOT_NAMED 1943-11-16 00:00:00 NR 16.9000 121.000 main 0 0 __________O___ -1 16.9000 121.000 2 3 4
1943315N11141 1943 81 WP MM NOT_NAMED 1943-11-16 03:00:00 NR 17.0347 121.018 main 0 0 __________P___ -1 17.0347 121.018 2 3 7
1943315N11141 1943 81 WP MM NOT_NAMED 1943-11-16 06:00:00 NR 17.1775 121.042 main 0 0 __________P___ -1 17.1775 121.042 2 3 10
1943315N11141 1943 81 WP MM NOT_NAMED 1943-11-16 09:00:00 NR 17.3316 121.071 main 0 0 __________P___ -1 17.3316 121.071 2 3 9
1943315N11141 1943 81 WP MM NOT_NAMED 1943-11-16 12:00:00 NR 17.5000 121.100 main 0 0 __________O___ -1 17.5000 121.100 2 3 11
1943315N11141 1943 81 WP MM NOT_NAMED 1943-11-16 15:00:00 NR 17.6613 121.145 main 0 0 __________P___ -1 17.6613 121.145 2 4 13
1943315N11141 1943 81 WP MM NOT_NAMED 1943-11-16 18:00:00 NR 17.8400 121.187 main 0 0 __________P___ -1 17.8400 121.187 2 4 8
1943315N11141 1943 81 WP MM NOT_NAMED 1943-11-16 21:00:00 NR 18.0487 121.211 main 0 0 __________P___ -1 18.0487 121.211 2 5 0
1943315N11141 1943 81 WP MM NOT_NAMED 1943-11-17 00:00:00 NR 18.3000 121.200 main 0 0 __________O___ -1 18.3000 121.200 2 6 356
1943315N11141 1943 81 WP MM NOT_NAMED 1943-11-17 03:00:00 NR 18.6432 121.173 main 11 11 __________P___ -1 18.6432 121.173 2 7 353
1943315N11141 1943 81 WP MM NOT_NAMED 1943-11-17 06:00:00 NR 19.0221 121.105 main 49 49 __________P___ -1 19.0221 121.105 2 8 347
1943315N11141 1943 81 WP MM NOT_NAMED 1943-11-17 09:00:00 NR 19.3900 120.985 main 90 90 __________P___ -1 19.3900 120.985 2 7 337
1943315N11141 1943 81 WP MM NOT_NAMED 1943-11-17 12:00:00 NR 19.7000 120.800 main 123 123 __________O___ -1 19.7000 120.800 2 7 322
1943315N11141 1943 81 WP MM NOT_NAMED 1943-11-17 15:00:00 NR 19.9174 120.543 main 148 148 __________P___ -1 19.9174 120.543 2 6 303
1943315N11141 1943 81 WP MM NOT_NAMED 1943-11-17 18:00:00 NR 20.0559 120.227 main 179 179 __________P___ -1 20.0559 120.227 2 7 290
1943315N11141 1943 81 WP MM NOT_NAMED 1943-11-17 21:00:00 NR 20.1414 119.873 main 192 192 __________P___ -1 20.1414 119.873 2 7 282
1943315N11141 1943 81 WP MM NOT_NAMED 1943-11-18 00:00:00 NR 20.2000 119.500 main 224 __________O___ -1 20.2000 119.500 2 7 280

デジタル台風データ・検索

IBTrACS Databaseについて

本データベースは、米国NOAAが公開する1842年以降の世界の熱帯低気圧のベストトラックデータアーカイブInternational Best Track Archive for Climate Stewardship (IBTrACS)を、ウェブで閲覧しやすい形式に変換したものです。

最終更新日:2021-10-08